createdAt,value
2022-08-26T00:02:21.059Z,99277.69
2022-08-26T00:04:52.199Z,99270.56
2022-08-26T00:07:20.512Z,99266.41
2022-08-26T00:09:50.035Z,99266.38
2022-08-26T00:12:19.658Z,99262.81
2022-08-26T00:15:00.735Z,99261.59
2022-08-26T00:17:30.046Z,99263.09
2022-08-26T00:19:59.772Z,99258.88
2022-08-26T00:22:29.400Z,99260.75
2022-08-26T00:24:58.515Z,99252.44
2022-08-26T00:27:27.890Z,99257.13
2022-08-26T00:29:56.281Z,99252.53
2022-08-26T00:32:26.174Z,99252.38
2022-08-26T00:34:54.516Z,99253.44
2022-08-26T00:37:27.138Z,99250.72
2022-08-26T00:39:55.778Z,99246.75
2022-08-26T00:42:30.101Z,99253.97
2022-08-26T00:44:58.536Z,99245.78
2022-08-26T00:47:32.383Z,99253.59
2022-08-26T00:50:03.298Z,99248.34
2022-08-26T00:52:34.998Z,99251.94
2022-08-26T00:55:09.200Z,99242.25
2022-08-26T00:57:39.252Z,99248.25
2022-08-26T01:00:11.678Z,99247.72
2022-08-26T01:02:40.002Z,99245.94
2022-08-26T01:05:15.977Z,99243.88
2022-08-26T01:07:46.106Z,99250.66
2022-08-26T01:10:18.807Z,99245.88
2022-08-26T01:12:52.055Z,99252.59
2022-08-26T01:15:24.070Z,99241.84
2022-08-26T01:17:53.589Z,99251.88
2022-08-26T01:20:29.801Z,99243.56
2022-08-26T01:23:01.591Z,99249.41
2022-08-26T01:25:33.602Z,99245.97
2022-08-26T01:28:05.755Z,99249.94
2022-08-26T01:30:35.605Z,99251.06
2022-08-26T01:33:06.757Z,99246.78
2022-08-26T01:35:35.071Z,99252.38
2022-08-26T01:38:05.590Z,99249.09
2022-08-26T01:40:37.742Z,99246.91
2022-08-26T01:43:09.095Z,99248.69
2022-08-26T01:45:40.857Z,99253.56
2022-08-26T01:48:12.242Z,99249.22
2022-08-26T01:50:43.305Z,99245.41
2022-08-26T01:53:14.991Z,99244.41
2022-08-26T01:55:46.168Z,99243.13
2022-08-26T01:58:22.016Z,99242.13
2022-08-26T02:00:54.760Z,99250.06
2022-08-26T02:03:24.704Z,99249.44
2022-08-26T02:05:58.312Z,99249.53
2022-08-26T02:08:33.291Z,99261.03
2022-08-26T02:11:04.189Z,99249.63
2022-08-26T02:13:35.038Z,99247.28
2022-08-26T02:16:06.423Z,99250.28
2022-08-26T02:18:38.916Z,99244.78
2022-08-26T02:23:52.502Z,99245.66
2022-08-26T02:26:26.832Z,99251.28
2022-08-26T02:28:58.208Z,99242.50
2022-08-26T02:31:26.739Z,99241.94
2022-08-26T02:33:56.115Z,99245.56
2022-08-26T02:36:28.538Z,99243.91
2022-08-26T02:39:00.531Z,99244.19
2022-08-26T02:41:29.729Z,99239.13
2022-08-26T02:44:02.153Z,99235.75
2022-08-26T02:46:31.493Z,99231.88
2022-08-26T02:49:01.731Z,99231.66
2022-08-26T02:51:32.058Z,99238.50
2022-08-26T02:54:04.301Z,99235.75
2022-08-26T02:56:33.880Z,99233.81
2022-08-26T02:59:03.647Z,99226.88
2022-08-26T03:01:34.288Z,99225.97
2022-08-26T03:04:04.777Z,99228.06
2022-08-26T03:06:34.084Z,99221.06
2022-08-26T03:09:05.516Z,99224.66
2022-08-26T03:11:33.869Z,99216.84
2022-08-26T03:14:03.866Z,99225.16
2022-08-26T03:16:34.060Z,99228.94
2022-08-26T03:19:03.510Z,99239.75
2022-08-26T03:21:32.477Z,99229.72
2022-08-26T03:24:00.824Z,99228.16
2022-08-26T03:26:31.305Z,99231.63
2022-08-26T03:29:29.736Z,99226.84
2022-08-26T03:32:01.692Z,99221.41
2022-08-26T03:34:29.870Z,99221.41
2022-08-26T03:36:58.960Z,99214.03
2022-08-26T03:39:27.032Z,99224.56
2022-08-26T03:41:57.622Z,99218.25
2022-08-26T03:44:25.775Z,99227.50
2022-08-26T03:46:55.075Z,99227.34
2022-08-26T03:49:23.727Z,99222.84
2022-08-26T03:51:53.145Z,99218.13
2022-08-26T03:54:21.718Z,99221.94
2022-08-26T03:56:51.442Z,99219.59
2022-08-26T03:59:22.381Z,99222.59
2022-08-26T04:01:51.248Z,99223.75
2022-08-26T04:04:22.590Z,99227.28
2022-08-26T04:06:57.550Z,99223.41
2022-08-26T04:09:26.667Z,99225.34
2022-08-26T04:11:55.020Z,99224.22
2022-08-26T04:14:28.484Z,99221.22
2022-08-26T04:16:56.819Z,99217.69
2022-08-26T04:19:26.208Z,99224.66
2022-08-26T04:21:54.947Z,99225.47
2022-08-26T04:24:24.100Z,99224.88
2022-08-26T04:26:52.365Z,99232.47
2022-08-26T04:29:24.296Z,99228.25
2022-08-26T04:31:55.893Z,99231.50
2022-08-26T04:34:28.369Z,99222.53
2022-08-26T04:37:01.093Z,99222.66
2022-08-26T04:39:29.551Z,99228.81
2022-08-26T04:41:59.643Z,99232.50
2022-08-26T04:44:31.198Z,99226.28
2022-08-26T04:47:02.006Z,99224.34
2022-08-26T04:49:35.526Z,99228.16
2022-08-26T04:52:05.090Z,99218.25
2022-08-26T04:54:33.805Z,99230.38
2022-08-26T04:57:02.485Z,99227.50
2022-08-26T04:59:38.477Z,99229.88
2022-08-26T05:02:09.772Z,99225.06
2022-08-26T05:04:43.526Z,99231.94
2022-08-26T05:07:13.014Z,99229.66
2022-08-26T05:09:42.051Z,99227.63
2022-08-26T05:12:11.499Z,99236.97
2022-08-26T05:14:41.490Z,99239.44
2022-08-26T05:17:14.830Z,99239.22
2022-08-26T05:19:43.444Z,99237.41
2022-08-26T05:22:13.095Z,99243.66
2022-08-26T05:24:41.524Z,99240.47
2022-08-26T05:27:13.615Z,99238.69
2022-08-26T05:29:42.793Z,99237.41
2022-08-26T05:32:13.923Z,99243.53
2022-08-26T05:34:42.921Z,99242.19
2022-08-26T05:37:11.281Z,99246.66
2022-08-26T05:39:43.513Z,99245.81
2022-08-26T05:42:20.767Z,99249.19
2022-08-26T05:44:56.674Z,99247.03
2022-08-26T05:47:28.231Z,99249.88
2022-08-26T05:49:56.904Z,99245.72
2022-08-26T05:52:26.297Z,99242.16
2022-08-26T05:54:54.450Z,99248.28
2022-08-26T05:57:23.114Z,99246.94
2022-08-26T05:59:52.907Z,99244.84
2022-08-26T06:02:24.194Z,99250.41
2022-08-26T06:04:56.750Z,99234.53
2022-08-26T06:07:46.268Z,99248.28
2022-08-26T06:10:31.633Z,99251.00
2022-08-26T06:13:11.860Z,99241.91
2022-08-26T06:15:43.164Z,99241.59
2022-08-26T06:18:14.626Z,99239.94
2022-08-26T06:20:57.928Z,99244.16
2022-08-26T06:23:51.150Z,99256.94
2022-08-26T06:26:19.973Z,99246.34
2022-08-26T06:28:48.252Z,99245.75
2022-08-26T06:31:17.411Z,99246.91
2022-08-26T06:33:46.222Z,99245.75
2022-08-26T06:36:21.102Z,99244.13
2022-08-26T06:38:50.017Z,99243.91
2022-08-26T06:41:21.219Z,99240.81
2022-08-26T06:43:50.999Z,99243.31
2022-08-26T06:46:20.754Z,99240.72
2022-08-26T06:48:50.878Z,99240.50
2022-08-26T06:51:23.608Z,99238.84
2022-08-26T06:53:54.865Z,99231.25
2022-08-26T06:56:25.105Z,99233.78
2022-08-26T06:58:55.841Z,99235.09
2022-08-26T07:01:26.340Z,99240.69
2022-08-26T07:03:56.985Z,99244.00
2022-08-26T07:06:28.209Z,99241.41
2022-08-26T07:09:03.365Z,99233.44
2022-08-26T07:11:34.093Z,99237.72
2022-08-26T07:14:03.003Z,99238.56
2022-08-26T07:16:32.180Z,99234.25
2022-08-26T07:19:03.432Z,99239.47
2022-08-26T07:21:42.071Z,99230.97
2022-08-26T07:24:18.780Z,99244.34
2022-08-26T07:26:48.632Z,99233.34
2022-08-26T07:29:20.267Z,99233.09
2022-08-26T07:31:53.168Z,99230.72
2022-08-26T07:34:26.204Z,99229.75
2022-08-26T07:36:57.085Z,99223.25
2022-08-26T07:39:28.032Z,99230.47
2022-08-26T07:41:57.545Z,99220.56
2022-08-26T07:44:27.258Z,99227.31
2022-08-26T07:49:23.626Z,99215.63
2022-08-26T07:51:52.361Z,99228.06
2022-08-26T07:54:26.658Z,99228.66
2022-08-26T07:56:56.333Z,99222.47
2022-08-26T07:59:25.836Z,99223.66
2022-08-26T08:01:53.981Z,99221.63
2022-08-26T08:04:26.735Z,99229.81
2022-08-26T08:06:56.104Z,99228.13
2022-08-26T08:09:26.615Z,99225.56
2022-08-26T08:11:56.510Z,99225.66
2022-08-26T08:14:25.103Z,99223.69
2022-08-26T08:16:55.384Z,99221.09
2022-08-26T08:19:36.822Z,99217.63
2022-08-26T08:22:17.459Z,99222.59
2022-08-26T08:24:53.027Z,99221.03
2022-08-26T08:27:24.090Z,99217.56
2022-08-26T08:29:54.363Z,99217.47
2022-08-26T08:32:24.869Z,99213.78
2022-08-26T08:34:53.766Z,99216.34
2022-08-26T08:37:21.938Z,99218.66
2022-08-26T08:39:51.657Z,99218.81
2022-08-26T08:42:35.610Z,99224.44
2022-08-26T08:45:08.380Z,99223.22
2022-08-26T08:47:39.828Z,99221.28
2022-08-26T08:50:17.818Z,99211.53
2022-08-26T08:52:53.894Z,99222.00
2022-08-26T08:55:25.822Z,99217.13
2022-08-26T08:58:04.543Z,99216.94
2022-08-26T09:00:40.972Z,99213.28
2022-08-26T09:03:21.479Z,99215.34
2022-08-26T09:05:51.575Z,99208.09
2022-08-26T09:08:27.656Z,99210.19
2022-08-26T09:11:00.731Z,99205.66
2022-08-26T09:13:31.691Z,99201.53
2022-08-26T09:16:07.641Z,99209.53
2022-08-26T09:18:52.942Z,99204.00
2022-08-26T09:21:23.556Z,99211.66
2022-08-26T09:23:56.979Z,99204.53
2022-08-26T09:26:30.973Z,99195.81
2022-08-26T09:29:02.439Z,99201.06
2022-08-26T09:31:33.022Z,99199.50
2022-08-26T09:34:10.217Z,99191.53
2022-08-26T09:36:43.813Z,99194.38
2022-08-26T09:39:37.877Z,99199.00
2022-08-26T09:42:11.873Z,99200.56
2022-08-26T09:44:56.536Z,99190.69
2022-08-26T09:47:29.816Z,99195.84
2022-08-26T09:50:02.260Z,99180.09
2022-08-26T09:52:30.363Z,99179.63
2022-08-26T09:55:06.008Z,99179.44
2022-08-26T09:57:38.287Z,99178.75
2022-08-26T10:00:25.729Z,99178.84
2022-08-26T10:03:07.265Z,99177.88
2022-08-26T10:05:41.462Z,99172.75
2022-08-26T10:08:24.736Z,99178.50
2022-08-26T10:10:54.322Z,99169.47
2022-08-26T10:13:29.560Z,99170.53
2022-08-26T10:16:10.740Z,99173.72
2022-08-26T10:18:42.291Z,99175.97
2022-08-26T10:21:14.161Z,99166.16
2022-08-26T10:23:49.788Z,99173.88
2022-08-26T10:26:24.134Z,99174.47
2022-08-26T10:28:57.840Z,99159.91
2022-08-26T10:31:30.845Z,99165.09
2022-08-26T10:34:10.448Z,99161.00
2022-08-26T10:37:15.522Z,99153.84
2022-08-26T10:39:46.632Z,99149.47
2022-08-26T10:42:21.814Z,99160.78
2022-08-26T10:45:05.360Z,99155.84
2022-08-26T10:47:39.804Z,99154.47
2022-08-26T10:50:09.584Z,99155.81
2022-08-26T10:52:53.646Z,99155.22
2022-08-26T10:55:27.442Z,99150.31
2022-08-26T10:57:59.448Z,99145.38
2022-08-26T11:00:54.310Z,99144.25
2022-08-26T11:03:40.029Z,99143.41
2022-08-26T11:06:23.929Z,99135.44
2022-08-26T11:08:53.960Z,99137.38
2022-08-26T11:11:45.419Z,99132.66
2022-08-26T11:14:53.115Z,99128.94
2022-08-26T11:18:00.103Z,99118.53
2022-08-26T11:20:35.959Z,99124.47
2022-08-26T11:23:41.630Z,99106.19
2022-08-26T11:26:35.611Z,99110.28
2022-08-26T11:29:12.254Z,99097.34
2022-08-26T11:31:57.054Z,99105.47
2022-08-26T11:34:57.092Z,99093.09
2022-08-26T11:37:33.295Z,99092.25
2022-08-26T11:40:04.984Z,99093.66
2022-08-26T11:42:41.044Z,99084.22
2022-08-26T11:45:20.147Z,99077.13
2022-08-26T11:47:49.476Z,99072.63
2022-08-26T11:50:26.997Z,99082.00
2022-08-26T11:53:01.727Z,99064.69
2022-08-26T11:55:32.250Z,99072.38
2022-08-26T11:58:05.033Z,99060.22
2022-08-26T12:00:54.363Z,99062.28
2022-08-26T12:03:26.974Z,99057.19
2022-08-26T12:05:57.366Z,99051.47
2022-08-26T12:08:29.182Z,99051.34
2022-08-26T12:11:06.417Z,99042.47
2022-08-26T12:13:35.459Z,99036.72
2022-08-26T12:16:07.780Z,99041.50
2022-08-26T12:18:38.509Z,99035.47
2022-08-26T12:21:16.259Z,99037.91
2022-08-26T12:23:46.885Z,99043.28
2022-08-26T12:26:28.145Z,99033.34
2022-08-26T12:28:58.217Z,99032.53
2022-08-26T12:31:31.265Z,99019.94
2022-08-26T12:34:01.131Z,99018.25
2022-08-26T12:36:37.230Z,99019.25
2022-08-26T12:39:11.064Z,99018.66
2022-08-26T12:41:50.206Z,99004.63
2022-08-26T12:44:42.565Z,99007.91
2022-08-26T12:47:30.977Z,99011.53
2022-08-26T12:50:18.312Z,99012.69
2022-08-26T12:52:59.244Z,99000.13
2022-08-26T12:55:36.588Z,98993.13
2022-08-26T12:58:23.035Z,98988.53
2022-08-26T13:00:52.705Z,98990.50
2022-08-26T13:03:43.427Z,98990.19
2022-08-26T13:06:19.156Z,98989.03
2022-08-26T13:08:51.458Z,98986.78
2022-08-26T13:11:22.446Z,98990.16
2022-08-26T13:13:53.525Z,98972.09
2022-08-26T13:16:22.425Z,98979.13
2022-08-26T13:18:53.137Z,98976.09
2022-08-26T13:21:24.561Z,98967.44
2022-08-26T13:23:56.005Z,98969.31
2022-08-26T13:26:24.716Z,98972.38
2022-08-26T13:29:01.367Z,98960.25
2022-08-26T13:31:33.064Z,98947.88
2022-08-26T13:34:03.738Z,98953.41
2022-08-26T13:36:32.814Z,98950.38
2022-08-26T13:39:03.450Z,98943.28
2022-08-26T13:41:33.056Z,98941.63
2022-08-26T13:44:02.263Z,98941.00
2022-08-26T13:46:30.921Z,98940.69
2022-08-26T13:48:59.347Z,98941.63
2022-08-26T13:51:28.498Z,98935.44
2022-08-26T13:53:58.119Z,98931.31
2022-08-26T13:56:30.970Z,98919.31
2022-08-26T13:59:01.243Z,98930.56
2022-08-26T14:01:31.363Z,98922.16
2022-08-26T14:04:00.709Z,98925.56
2022-08-26T14:06:33.459Z,98925.31
2022-08-26T14:09:05.246Z,98922.84
2022-08-26T14:11:50.866Z,98928.03
2022-08-26T14:14:22.981Z,98927.53
2022-08-26T14:16:58.695Z,98917.63
2022-08-26T14:19:31.178Z,98918.88
2022-08-26T14:22:01.514Z,98916.09
2022-08-26T14:24:31.254Z,98917.97
2022-08-26T14:27:01.116Z,98914.19
2022-08-26T14:29:29.388Z,98913.25
2022-08-26T14:31:58.773Z,98916.28
2022-08-26T14:34:29.991Z,98912.72
2022-08-26T14:36:58.203Z,98906.38
2022-08-26T14:39:37.367Z,98907.47
2022-08-26T14:42:09.101Z,98910.78
2022-08-26T14:44:38.707Z,98903.59
2022-08-26T14:47:08.020Z,98906.69
2022-08-26T14:49:37.720Z,98905.53
2022-08-26T14:52:05.976Z,98908.00
2022-08-26T14:54:34.234Z,98912.00
2022-08-26T14:57:04.973Z,98909.00
2022-08-26T14:59:38.830Z,98914.28
2022-08-26T15:02:09.150Z,98911.31
2022-08-26T15:04:43.664Z,98903.63
2022-08-26T15:07:12.926Z,98905.88
2022-08-26T15:09:42.115Z,98903.91
2022-08-26T15:12:10.357Z,98902.97
2022-08-26T15:14:46.518Z,98907.72
2022-08-26T15:17:17.022Z,98902.34
2022-08-26T15:19:45.478Z,98897.47
2022-08-26T15:22:14.841Z,98893.78
2022-08-26T15:24:44.725Z,98895.06
2022-08-26T15:27:15.551Z,98885.00
2022-08-26T15:29:49.749Z,98895.22
2022-08-26T15:32:18.895Z,98890.56
2022-08-26T15:34:50.055Z,98893.13
2022-08-26T15:37:19.215Z,98891.56
2022-08-26T15:39:56.871Z,98887.16
2022-08-26T15:42:25.392Z,98891.34
2022-08-26T15:44:57.296Z,98888.34
2022-08-26T15:47:28.297Z,98888.72
2022-08-26T15:49:58.267Z,98885.00
2022-08-26T15:52:28.986Z,98889.16
2022-08-26T15:54:58.785Z,98893.66
2022-08-26T15:57:30.269Z,98892.03
2022-08-26T16:00:04.496Z,98874.75
2022-08-26T16:02:57.081Z,98890.28
2022-08-26T16:05:39.506Z,98883.44
2022-08-26T16:08:09.891Z,98887.19
2022-08-26T16:10:50.561Z,98882.66
2022-08-26T16:13:23.843Z,98883.50
2022-08-26T16:16:19.030Z,98886.03
2022-08-26T16:18:51.820Z,98886.38
2022-08-26T16:21:22.014Z,98883.81
2022-08-26T16:23:51.010Z,98878.72
2022-08-26T16:26:27.739Z,98883.44
2022-08-26T16:28:56.508Z,98873.03
2022-08-26T16:31:36.155Z,98873.81
2022-08-26T16:34:10.798Z,98866.88
2022-08-26T16:36:48.529Z,98866.78
2022-08-26T16:39:20.118Z,98865.47
2022-08-26T16:41:49.161Z,98871.78
2022-08-26T16:44:18.622Z,98871.75
2022-08-26T16:46:50.582Z,98867.19
2022-08-26T16:49:28.245Z,98873.69
2022-08-26T16:51:56.948Z,98876.53
2022-08-26T16:54:27.631Z,98858.75
2022-08-26T16:56:58.640Z,98863.75
2022-08-26T16:59:28.162Z,98867.09
2022-08-26T17:01:58.469Z,98867.75
2022-08-26T17:04:28.344Z,98870.78
2022-08-26T17:06:56.996Z,98870.34
2022-08-26T17:09:26.868Z,98865.19
2022-08-26T17:11:55.952Z,98864.97
2022-08-26T17:14:26.339Z,98869.97
2022-08-26T17:16:57.629Z,98863.63
2022-08-26T17:19:29.605Z,98866.72
2022-08-26T17:22:05.656Z,98857.41
2022-08-26T17:24:36.065Z,98861.28
2022-08-26T17:27:05.410Z,98860.44
2022-08-26T17:29:35.389Z,98860.50
2022-08-26T17:32:03.801Z,98863.25
2022-08-26T17:34:35.655Z,98864.66
2022-08-26T17:37:04.221Z,98864.44
2022-08-26T17:39:33.709Z,98861.13
2022-08-26T17:42:02.005Z,98861.69
2022-08-26T17:44:31.868Z,98865.81
2022-08-26T17:46:59.981Z,98861.97
2022-08-26T17:49:28.782Z,98866.41
2022-08-26T17:52:00.013Z,98866.97
2022-08-26T17:54:32.046Z,98871.63
2022-08-26T17:57:00.620Z,98880.19
2022-08-26T17:59:30.847Z,98866.72
2022-08-26T18:02:01.956Z,98870.31
2022-08-26T18:04:31.299Z,98878.03
2022-08-26T18:07:10.325Z,98867.59
2022-08-26T18:09:38.964Z,98873.38
2022-08-26T18:12:13.387Z,98884.94
2022-08-26T18:14:44.894Z,98880.78
2022-08-26T18:17:15.377Z,98891.22
2022-08-26T18:20:07.016Z,98891.50
2022-08-26T18:22:41.388Z,98895.06
2022-08-26T18:25:18.796Z,98889.88
2022-08-26T18:27:53.172Z,98888.75
2022-08-26T18:30:23.744Z,98892.59
2022-08-26T18:32:53.788Z,98890.97
2022-08-26T18:35:29.434Z,98903.59
2022-08-26T18:38:01.420Z,98906.31
2022-08-26T18:40:47.658Z,98898.06
2022-08-26T18:43:18.133Z,98899.75
2022-08-26T18:45:56.456Z,98907.41
2022-08-26T18:48:28.646Z,98904.97
2022-08-26T18:51:05.860Z,98911.53
2022-08-26T18:53:38.353Z,98915.13
2022-08-26T18:56:07.673Z,98914.53
2022-08-26T18:58:36.607Z,98914.53
2022-08-26T19:01:09.390Z,98915.66
2022-08-26T19:03:40.766Z,98916.22
2022-08-26T19:06:09.977Z,98915.38
2022-08-26T19:08:46.315Z,98920.56
2022-08-26T19:11:31.228Z,98925.50
2022-08-26T19:16:50.347Z,98924.38
2022-08-26T19:19:28.179Z,98925.53
2022-08-26T19:21:59.763Z,98932.09
2022-08-26T19:24:46.031Z,98941.13
2022-08-26T19:27:19.395Z,98945.00
2022-08-26T19:29:53.661Z,98941.34
2022-08-26T19:32:27.162Z,98943.47
2022-08-26T19:34:59.626Z,98937.59
2022-08-26T19:37:29.959Z,98943.38
2022-08-26T19:40:13.231Z,98943.53
2022-08-26T19:42:45.202Z,98942.25
2022-08-26T19:45:24.812Z,98936.91
2022-08-26T19:48:06.782Z,98952.81
2022-08-26T19:50:41.050Z,98949.19
2022-08-26T19:53:12.008Z,98952.97
2022-08-26T19:56:04.253Z,98954.50
2022-08-26T19:58:35.711Z,98950.53
2022-08-26T20:01:18.308Z,98944.09
2022-08-26T20:03:51.016Z,98947.16
2022-08-26T20:06:20.167Z,98953.91
2022-08-26T20:08:52.111Z,98948.19
2022-08-26T20:11:28.758Z,98958.56
2022-08-26T20:13:57.657Z,98959.34
2022-08-26T20:16:26.198Z,98965.06
2022-08-26T20:19:12.764Z,98962.53
2022-08-26T20:21:43.694Z,98970.81
2022-08-26T20:24:14.891Z,98968.34
2022-08-26T20:26:47.116Z,98976.53
2022-08-26T20:29:18.930Z,98968.06
2022-08-26T20:31:52.626Z,98963.69
2022-08-26T20:34:22.057Z,98965.00
2022-08-26T20:36:59.696Z,98957.59
2022-08-26T20:39:32.130Z,98966.69
2022-08-26T20:42:03.354Z,98966.03
2022-08-26T20:44:35.145Z,98972.72
2022-08-26T20:47:04.874Z,98965.72
2022-08-26T20:49:33.277Z,98975.03
2022-08-26T20:52:04.875Z,98971.44
2022-08-26T20:54:33.185Z,98964.19
2022-08-26T20:57:03.971Z,98963.47
2022-08-26T20:59:32.227Z,98964.19
2022-08-26T21:02:01.888Z,98963.75
2022-08-26T21:04:31.432Z,98953.94
2022-08-26T21:06:59.680Z,98963.25
2022-08-26T21:09:31.762Z,98961.59
2022-08-26T21:12:03.573Z,98962.41
2022-08-26T21:14:33.888Z,98971.75
2022-08-26T21:17:06.107Z,98963.34
2022-08-26T21:19:34.426Z,98953.94
2022-08-26T21:22:04.179Z,98965.63
2022-08-26T21:24:33.739Z,98966.56
2022-08-26T21:27:02.243Z,98972.47
2022-08-26T21:29:31.642Z,98971.69
2022-08-26T21:32:03.677Z,98972.63
2022-08-26T21:34:33.520Z,98973.63
2022-08-26T21:37:02.165Z,98969.66
2022-08-26T21:39:39.240Z,98976.16
2022-08-26T21:42:08.245Z,98980.66
2022-08-26T21:44:39.059Z,98974.59
2022-08-26T21:47:10.992Z,98985.09
2022-08-26T21:49:44.202Z,98980.47
2022-08-26T21:52:15.326Z,98981.84
2022-08-26T21:54:49.657Z,98984.56
2022-08-26T21:57:18.933Z,98975.22
2022-08-26T21:59:47.630Z,98982.06
2022-08-26T22:02:18.271Z,98997.88
2022-08-26T22:04:48.929Z,98985.72
2022-08-26T22:07:20.426Z,98983.03
2022-08-26T22:10:04.632Z,98988.59
2022-08-26T22:12:42.079Z,98988.91
2022-08-26T22:15:14.441Z,98992.38
2022-08-26T22:17:46.028Z,98997.22
2022-08-26T22:20:16.449Z,98988.03
2022-08-26T22:22:45.841Z,98985.03
2022-08-26T22:25:15.454Z,98982.56
2022-08-26T22:27:44.634Z,98982.06
2022-08-26T22:30:15.892Z,98980.16
2022-08-26T22:32:45.846Z,98985.38
2022-08-26T22:35:28.991Z,98991.34
2022-08-26T22:37:58.606Z,98985.19
2022-08-26T22:40:32.978Z,98997.63
2022-08-26T22:43:03.525Z,98993.13
2022-08-26T22:45:33.640Z,99000.56
2022-08-26T22:48:04.764Z,98987.56
2022-08-26T22:50:34.090Z,98988.28
2022-08-26T22:53:02.794Z,98990.97
2022-08-26T22:55:34.058Z,98982.91
2022-08-26T22:58:02.361Z,98982.78
2022-08-26T23:00:31.989Z,98993.34
2022-08-26T23:03:04.303Z,98988.84
2022-08-26T23:05:34.172Z,98984.44
2022-08-26T23:08:03.066Z,98981.56
2022-08-26T23:10:33.869Z,98982.72
2022-08-26T23:13:03.774Z,98976.44
2022-08-26T23:15:36.169Z,98984.41
2022-08-26T23:18:08.128Z,98982.31
2022-08-26T23:20:37.648Z,98977.13
2022-08-26T23:23:07.764Z,98984.25
2022-08-26T23:25:38.374Z,98997.31
2022-08-26T23:28:12.532Z,98991.78
2022-08-26T23:30:41.550Z,98987.06
2022-08-26T23:33:11.006Z,98989.88
2022-08-26T23:35:38.459Z,98985.88
2022-08-26T23:38:10.187Z,98988.56
2022-08-26T23:40:47.794Z,98997.41
2022-08-26T23:43:17.770Z,98991.09
2022-08-26T23:45:46.523Z,98990.19
2022-08-26T23:48:14.685Z,98991.53
2022-08-26T23:51:07.212Z,98992.69
2022-08-26T23:53:35.780Z,98996.34
2022-08-26T23:56:05.537Z,98998.88
2022-08-26T23:58:34.563Z,99002.44
